Time,TemperatureF,DewpointF,PressureIn,WindDirection,WindDirectionDegrees,WindSpeedMPH,WindSpeedGustMPH,Humidity,HourlyPrecipIn,Conditions,Clouds,dailyrainin,SolarRadiationWatts/m^2,SoftwareType,DateUTC
2013-04-04 00:00:00,60.8,52.1,29.96,SW,223,0.0,5.0,73,0.00,,,0.00,0,Wunderground v.1.15,2013-04-04 07:00:00,
2013-04-04 00:05:00,60.8,52.1,29.95,SW,223,0.0,5.0,73,0.00,,,0.00,0,Wunderground v.1.15,2013-04-04 07:05:00,
2013-04-04 00:10:00,61.0,51.9,29.95,SW,223,0.0,5.0,72,0.00,,,0.00,0,Wunderground v.1.15,2013-04-04 07:10:00,
2013-04-04 00:15:00,61.1,52.0,29.95,SW,223,0.0,5.0,72,0.00,,,0.00,0,Wunderground v.1.15,2013-04-04 07:15:00,
2013-04-04 00:20:00,61.3,51.8,29.95,SW,223,0.0,5.0,71,0.00,,,0.00,0,Wunderground v.1.15,2013-04-04 07:20:00,
2013-04-04 00:25:00,61.4,51.5,29.95,SW,223,0.0,5.0,70,0.00,,,0.00,0,Wunderground v.1.15,2013-04-04 07:25:00,
2013-04-04 00:30:00,61.6,51.7,29.95,SW,223,0.0,5.0,70,0.00,,,0.00,0,Wunderground v.1.15,2013-04-04 07:30:00,
2013-04-04 00:35:00,61.8,51.5,29.95,SW,223,0.0,5.0,69,0.00,,,0.00,0,Wunderground v.1.15,2013-04-04 07:35:00,
2013-04-04 00:40:00,62.0,51.3,29.95,SW,223,0.0,5.0,68,0.00,,,0.00,0,Wunderground v.1.15,2013-04-04 07:40:00,
2013-04-04 00:45:00,62.1,51.0,29.95,SW,223,0.0,5.0,67,0.00,,,0.00,0,Wunderground v.1.15,2013-04-04 07:45:00,
2013-04-04 00:50:00,62.1,51.0,29.95,SW,223,1.0,1.0,67,0.00,,,0.00,0,Wunderground v.1.15,2013-04-04 07:50:00,
2013-04-04 00:55:00,62.1,50.6,29.96,SW,223,1.0,5.0,66,0.00,,,0.00,0,Wunderground v.1.15,2013-04-04 07:55:00,
2013-04-04 01:00:00,62.1,50.2,29.96,SW,215,2.0,5.0,65,0.00,,,0.00,0,Wunderground v.1.15,2013-04-04 08:00:00,
2013-04-04 01:10:00,62.1,49.8,29.96,SSW,206,3.0,3.0,64,0.00,,,0.00,0,Wunderground v.1.15,2013-04-04 08:10:00,
2013-04-04 01:23:00,62.1,49.8,29.96,SW,223,2.0,5.0,64,0.00,,,0.00,0,Wunderground v.1.15,2013-04-04 08:23:00,
2013-04-04 01:33:00,62.0,49.3,29.95,SSW,213,2.0,5.0,63,0.00,,,0.00,0,Wunderground v.1.15,2013-04-04 08:33:00,
2013-04-04 01:43:00,61.8,48.6,29.95,SSW,208,2.0,5.0,62,0.00,,,0.00,0,Wunderground v.1.15,2013-04-04 08:43:00,
2013-04-04 01:45:00,61.5,47.0,29.95,SW,214,3.0,3.0,59,0.00,,,0.00,0,Wunderground v.1.15,2013-04-04 08:45:00,
2013-04-04 01:50:00,61.4,47.4,29.95,SW,216,2.0,2.0,60,0.00,,,0.00,0,Wunderground v.1.15,2013-04-04 08:50:00,
2013-04-04 01:53:00,61.6,48.0,29.95,SSW,206,2.0,5.0,61,0.00,,,0.00,0,Wunderground v.1.15,2013-04-04 08:53:00,
2013-04-04 01:58:00,61.6,47.6,29.95,SSW,211,2.0,2.0,60,0.00,,,0.00,0,Wunderground v.1.15,2013-04-04 08:58:00,
2013-04-04 02:00:00,61.0,46.6,29.95,SW,227,3.0,3.0,59,0.00,,,0.00,0,Wunderground v.1.15,2013-04-04 09:00:00,
2013-04-04 02:05:00,60.9,46.0,29.95,WSW,246,3.0,5.0,58,0.00,,,0.00,0,Wunderground v.1.15,2013-04-04 09:05:00,
2013-04-04 02:10:00,60.7,44.4,29.95,SW,222,3.0,5.0,55,0.00,,,0.00,0,Wunderground v.1.15,2013-04-04 09:10:00,
2013-04-04 02:13:00,61.2,47.2,29.95,SW,236,3.0,3.0,60,0.00,,,0.00,0,Wunderground v.1.15,2013-04-04 09:13:00,
2013-04-04 02:15:00,60.6,43.4,29.95,WSW,248,3.0,7.0,53,0.00,,,0.00,0,Wunderground v.1.15,2013-04-04 09:15:00,
2013-04-04 02:20:00,60.4,43.7,29.95,SW,232,3.0,3.0,54,0.00,,,0.00,0,Wunderground v.1.15,2013-04-04 09:20:00,
2013-04-04 02:25:00,60.4,43.7,29.95,SW,229,3.0,5.0,54,0.00,,,0.00,0,Wunderground v.1.15,2013-04-04 09:25:00,
2013-04-04 02:30:00,60.3,43.6,29.95,WSW,238,3.0,5.0,54,0.00,,,0.00,0,Wunderground v.1.15,2013-04-04 09:30:00,
2013-04-04 02:40:00,60.0,44.3,29.95,SW,225,3.0,5.0,56,0.00,,,0.00,0,Wunderground v.1.15,2013-04-04 09:40:00,
2013-04-04 02:50:00,59.6,45.2,29.95,SW,218,3.0,3.0,59,0.00,,,0.00,0,Wunderground v.1.15,2013-04-04 09:50:00,
2013-04-04 02:53:00,60.2,44.0,29.95,SSW,211,3.0,5.0,55,0.00,,,0.00,0,Wunderground v.1.15,2013-04-04 09:53:00,
2013-04-04 03:00:00,59.3,45.8,29.95,WSW,238,3.0,3.0,61,0.00,,,0.00,0,Wunderground v.1.15,2013-04-04 10:00:00,
2013-04-04 03:03:00,59.8,44.5,29.95,SW,225,3.0,5.0,57,0.00,,,0.00,0,Wunderground v.1.15,2013-04-04 10:03:00,
2013-04-04 03:13:00,59.5,45.2,29.95,SW,219,2.0,5.0,59,0.00,,,0.00,0,Wunderground v.1.15,2013-04-04 10:13:00,
2013-04-04 03:20:00,58.9,47.6,29.95,SW,223,2.0,2.0,66,0.00,,,0.00,0,Wunderground v.1.15,2013-04-04 10:20:00,
2013-04-04 03:23:00,59.1,46.1,29.95,SSW,206,2.0,5.0,62,0.00,,,0.00,0,Wunderground v.1.15,2013-04-04 10:23:00,
2013-04-04 03:33:00,59.0,46.8,29.95,SSW,213,3.0,5.0,64,0.00,,,0.00,0,Wunderground v.1.15,2013-04-04 10:33:00,
2013-04-04 03:40:00,58.9,47.6,29.94,SSW,198,0.0,5.0,66,0.00,,,0.00,0,Wunderground v.1.15,2013-04-04 10:40:00,
2013-04-04 03:43:00,58.8,47.5,29.95,SW,229,2.0,5.0,66,0.00,,,0.00,0,Wunderground v.1.15,2013-04-04 10:43:00,
2013-04-04 03:48:00,58.8,47.5,29.95,SW,214,1.0,5.0,66,0.00,,,0.00,0,Wunderground v.1.15,2013-04-04 10:48:00,
2013-04-04 03:53:00,58.8,47.5,29.95,SW,214,1.0,5.0,66,0.00,,,0.00,0,Wunderground v.1.15,2013-04-04 10:53:00,
2013-04-04 04:00:00,58.8,46.6,29.94,SSW,211,0.0,5.0,64,0.00,,,0.00,0,Wunderground v.1.15,2013-04-04 11:00:00,
2013-04-04 04:03:00,58.8,47.1,29.94,SSW,213,2.0,5.0,65,0.00,,,0.00,0,Wunderground v.1.15,2013-04-04 11:03:00,
2013-04-04 04:13:00,58.9,46.3,29.94,SSW,211,1.0,5.0,63,0.00,,,0.00,0,Wunderground v.1.15,2013-04-04 11:13:00,
2013-04-04 04:23:00,58.9,47.2,29.95,SSW,211,0.0,5.0,65,0.00,,,0.00,0,Wunderground v.1.15,2013-04-04 11:23:00,
2013-04-04 04:33:00,58.6,46.5,29.94,SSW,209,0.0,5.0,64,0.00,,,0.00,0,Wunderground v.1.15,2013-04-04 11:33:00,
2013-04-04 04:35:00,57.3,46.0,29.96,SW,220,4.0,8.0,66,0.00,,,0.00,0,Wunderground v.1.15,2013-04-04 11:35:00,
2013-04-04 04:38:00,58.4,46.7,29.95,SW,219,1.0,5.0,65,0.00,,,0.00,0,Wunderground v.1.15,2013-04-04 11:38:00,
2013-04-04 04:43:00,58.1,46.4,29.95,SSW,213,2.0,5.0,65,0.00,,,0.00,0,Wunderground v.1.15,2013-04-04 11:43:00,
2013-04-04 04:45:00,56.7,46.6,29.96,SSW,203,3.0,6.0,69,0.00,,,0.00,0,Wunderground v.1.15,2013-04-04 11:45:00,
2013-04-04 04:48:00,57.8,46.5,29.96,SW,230,3.0,8.0,66,0.00,,,0.00,0,Wunderground v.1.15,2013-04-04 11:48:00,
2013-04-04 04:58:00,57.1,46.6,29.96,SW,232,4.0,4.0,68,0.00,,,0.00,0,Wunderground v.1.15,2013-04-04 11:58:00,
2013-04-04 05:05:00,54.7,49.0,29.99,WSW,240,4.0,6.0,81,0.00,,,0.01,0,Wunderground v.1.15,2013-04-04 12:05:00,
2013-04-04 05:08:00,56.4,47.5,29.97,WSW,257,4.0,6.0,72,0.00,,,0.00,0,Wunderground v.1.15,2013-04-04 12:08:00,
2013-04-04 05:15:00,53.9,49.2,29.99,WSW,253,5.0,10.0,84,0.05,,,0.02,0,Wunderground v.1.15,2013-04-04 12:15:00,
2013-04-04 05:18:00,55.1,48.7,29.97,SW,229,5.0,5.0,79,0.00,,,0.01,0,Wunderground v.1.15,2013-04-04 12:18:00,
2013-04-04 05:25:00,53.6,49.5,29.99,WSW,254,4.0,5.0,86,0.06,,,0.03,0,Wunderground v.1.15,2013-04-04 12:25:00,
2013-04-04 05:28:00,54.2,49.1,29.99,WSW,248,5.0,10.0,83,0.05,,,0.02,0,Wunderground v.1.15,2013-04-04 12:28:00,
2013-04-04 05:35:00,53.5,49.7,29.99,WSW,250,4.0,5.0,87,0.13,,,0.05,0,Wunderground v.1.15,2013-04-04 12:35:00,
2013-04-04 05:38:00,53.7,49.6,29.99,SW,220,4.0,4.0,86,0.06,,,0.03,0,Wunderground v.1.15,2013-04-04 12:38:00,
2013-04-04 05:48:00,53.6,49.8,29.99,South,186,4.0,4.0,87,0.09,,,0.04,0,Wunderground v.1.15,2013-04-04 12:48:00,
2013-04-04 05:55:00,53.4,49.9,30.00,South,184,3.0,5.0,88,0.13,,,0.09,0,Wunderground v.1.15,2013-04-04 12:55:00,
2013-04-04 05:58:00,53.4,49.9,29.99,SW,226,4.0,4.0,88,0.11,,,0.06,0,Wunderground v.1.15,2013-04-04 12:58:00,
2013-04-04 06:05:00,53.6,50.4,30.00,South,183,0.0,5.0,89,0.08,,,0.11,0,Wunderground v.1.15,2013-04-04 13:05:00,
2013-04-04 06:08:00,53.4,49.9,30.00,SSW,203,3.0,3.0,88,0.13,,,0.08,0,Wunderground v.1.15,2013-04-04 13:08:00,
2013-04-04 06:10:00,53.7,50.8,30.01,South,183,0.0,5.0,90,0.14,,,0.12,0,Wunderground v.1.15,2013-04-04 13:10:00,
2013-04-04 06:15:00,53.7,50.8,30.01,SSW,192,1.0,5.0,90,0.13,,,0.13,0,Wunderground v.1.15,2013-04-04 13:15:00,
2013-04-04 06:18:00,53.6,50.4,30.00,South,184,1.0,1.0,89,0.11,,,0.10,0,Wunderground v.1.15,2013-04-04 13:18:00,
2013-04-04 06:25:00,53.8,50.9,30.01,SSW,202,1.0,5.0,90,0.18,,,0.16,0,Wunderground v.1.15,2013-04-04 13:25:00,
2013-04-04 06:38:00,53.8,50.9,30.02,SSW,198,1.0,5.0,90,0.15,,,0.14,0,Wunderground v.1.15,2013-04-04 13:38:00,
2013-04-04 06:48:00,53.9,51.0,30.02,South,178,1.0,1.0,90,0.14,,,0.17,0,Wunderground v.1.15,2013-04-04 13:48:00,
2013-04-04 06:50:00,54.0,51.4,30.03,South,181,0.0,5.0,91,0.20,,,0.24,0,Wunderground v.1.15,2013-04-04 13:50:00,
2013-04-04 06:53:00,54.0,51.4,30.02,South,181,1.0,5.0,91,0.23,,,0.19,0,Wunderground v.1.15,2013-04-04 13:53:00,
2013-04-04 06:58:00,53.9,51.0,30.02,South,181,0.0,5.0,90,0.19,,,0.21,0,Wunderground v.1.15,2013-04-04 13:58:00,
2013-04-04 07:00:00,54.1,51.5,30.03,South,181,0.0,5.0,91,0.16,,,0.27,5,Wunderground v.1.15,2013-04-04 14:00:00,
2013-04-04 07:03:00,54.0,51.4,30.02,South,181,0.0,5.0,91,0.21,,,0.22,0,Wunderground v.1.15,2013-04-04 14:03:00,
2013-04-04 07:10:00,53.9,51.3,30.03,East,92,1.0,5.0,91,0.19,,,0.30,18,Wunderground v.1.15,2013-04-04 14:10:00,
2013-04-04 07:13:00,54.1,51.5,30.03,South,181,0.0,5.0,91,0.16,,,0.25,7,Wunderground v.1.15,2013-04-04 14:13:00,
2013-04-04 07:20:00,53.5,51.2,30.03,ESE,119,2.0,5.0,92,0.12,,,0.32,16,Wunderground v.1.15,2013-04-04 14:20:00,
2013-04-04 07:23:00,54.0,51.4,30.03,SSE,148,0.0,5.0,91,0.20,,,0.29,9,Wunderground v.1.15,2013-04-04 14:23:00,
2013-04-04 07:25:00,53.4,51.1,30.03,East,93,3.0,5.0,92,0.08,,,0.33,12,Wunderground v.1.15,2013-04-04 14:25:00,
2013-04-04 07:33:00,53.6,51.0,30.04,ESE,105,2.0,5.0,91,0.11,,,0.31,18,Wunderground v.1.15,2013-04-04 14:33:00,
2013-04-04 07:48:00,53.3,51.0,30.04,ESE,113,2.0,5.0,92,0.14,,,0.34,12,Wunderground v.1.15,2013-04-04 14:48:00,
2013-04-04 07:53:00,53.2,50.9,30.03,East,93,2.0,5.0,92,0.10,,,0.34,12,Wunderground v.1.15,2013-04-04 14:53:00,
2013-04-04 07:58:00,53.3,51.0,30.03,NE,54,4.0,5.0,92,0.14,,,0.36,14,Wunderground v.1.15,2013-04-04 14:58:00,
2013-04-04 08:03:00,53.2,50.9,30.04,SE,125,4.0,5.0,92,0.10,,,0.36,11,Wunderground v.1.15,2013-04-04 15:03:00,
2013-04-04 08:08:00,53.2,50.9,30.05,SE,132,2.0,2.0,92,0.07,,,0.37,11,Wunderground v.1.15,2013-04-04 15:08:00,
2013-04-04 08:18:00,53.1,50.8,30.05,SE,124,1.0,5.0,92,0.12,,,0.39,37,Wunderground v.1.15,2013-04-04 15:18:00,
2013-04-04 08:23:00,53.2,50.9,30.05,SE,128,2.0,5.0,92,0.06,,,0.39,35,Wunderground v.1.15,2013-04-04 15:23:00,
2013-04-04 08:28:00,53.2,50.9,30.06,SE,127,2.0,5.0,92,0.04,,,0.39,33,Wunderground v.1.15,2013-04-04 15:28:00,
2013-04-04 08:33:00,53.2,50.9,30.06,East,95,2.0,5.0,92,0.04,,,0.40,28,Wunderground v.1.15,2013-04-04 15:33:00,
2013-04-04 08:38:00,53.1,50.8,30.06,ESE,109,3.0,3.0,92,0.09,,,0.41,30,Wunderground v.1.15,2013-04-04 15:38:00,
2013-04-04 08:43:00,53.1,50.8,30.06,ESE,114,3.0,5.0,92,0.30,,,0.43,40,Wunderground v.1.15,2013-04-04 15:43:00,
2013-04-04 08:53:00,53.2,51.2,30.06,SE,128,2.0,5.0,93,0.12,,,0.46,32,Wunderground v.1.15,2013-04-04 15:53:00,
2013-04-04 08:58:00,53.3,51.3,30.07,ESE,116,2.0,2.0,93,0.16,,,0.47,54,Wunderground v.1.15,2013-04-04 15:58:00,
2013-04-04 09:03:00,53.3,51.3,30.07,ESE,123,2.0,5.0,93,0.13,,,0.48,56,Wunderground v.1.15,2013-04-04 16:03:00,
2013-04-04 09:08:00,53.3,51.3,30.07,SE,132,2.0,2.0,93,0.06,,,0.48,65,Wunderground v.1.15,2013-04-04 16:08:00,
2013-04-04 09:13:00,53.4,51.4,30.07,East,89,2.0,3.0,93,0.06,,,0.49,76,Wunderground v.1.15,2013-04-04 16:13:00,
2013-04-04 09:18:00,53.5,51.5,30.07,ESE,118,2.0,2.0,93,0.06,,,0.49,104,Wunderground v.1.15,2013-04-04 16:18:00,
2013-04-04 09:23:00,53.7,51.7,30.07,SE,136,2.0,5.0,93,0.05,,,0.50,88,Wunderground v.1.15,2013-04-04 16:23:00,
2013-04-04 09:28:00,53.7,51.7,30.07,ESE,123,2.0,5.0,93,0.05,,,0.50,79,Wunderground v.1.15,2013-04-04 16:28:00,
2013-04-04 09:33:00,53.7,51.7,30.07,SE,132,3.0,5.0,93,0.05,,,0.50,102,Wunderground v.1.15,2013-04-04 16:33:00,
2013-04-04 09:38:00,53.9,51.9,30.07,SE,136,3.0,3.0,93,0.04,,,0.50,139,Wunderground v.1.15,2013-04-04 16:38:00,
2013-04-04 09:43:00,54.1,52.1,30.07,ESE,122,3.0,5.0,93,0.00,,,0.50,183,Wunderground v.1.15,2013-04-04 16:43:00,
2013-04-04 09:48:00,54.2,52.2,30.07,ESE,108,3.0,3.0,93,0.00,,,0.50,162,Wunderground v.1.15,2013-04-04 16:48:00,
2013-04-04 09:53:00,54.5,52.5,30.07,SE,137,2.0,5.0,93,0.00,,,0.50,169,Wunderground v.1.15,2013-04-04 16:53:00,
2013-04-04 09:58:00,54.8,52.8,30.07,East,88,2.0,2.0,93,0.00,,,0.50,169,Wunderground v.1.15,2013-04-04 16:58:00,
2013-04-04 10:03:00,54.8,52.8,30.07,ESE,117,3.0,3.0,93,0.00,,,0.50,162,Wunderground v.1.15,2013-04-04 17:03:00,
2013-04-04 10:08:00,55.0,53.0,30.07,ESE,111,3.0,3.0,93,0.00,,,0.50,160,Wunderground v.1.15,2013-04-04 17:08:00,
2013-04-04 10:13:00,55.5,53.2,30.07,ESE,119,2.0,5.0,92,0.00,,,0.50,181,Wunderground v.1.15,2013-04-04 17:13:00,
2013-04-04 10:18:00,55.7,53.4,30.07,East,99,2.0,5.0,92,0.00,,,0.50,156,Wunderground v.1.15,2013-04-04 17:18:00,
2013-04-04 10:23:00,55.9,53.3,30.07,SE,141,2.0,5.0,91,0.00,,,0.50,178,Wunderground v.1.15,2013-04-04 17:23:00,
2013-04-04 10:33:00,56.1,52.9,30.07,East,100,3.0,5.0,89,0.00,,,0.50,264,Wunderground v.1.15,2013-04-04 17:33:00,
2013-04-04 10:38:00,56.5,53.3,30.08,East,90,4.0,5.0,89,0.00,,,0.50,257,Wunderground v.1.15,2013-04-04 17:38:00,
2013-04-04 10:48:00,57.3,54.1,30.08,ESE,116,2.0,2.0,89,0.00,,,0.50,255,Wunderground v.1.15,2013-04-04 17:48:00,
2013-04-04 10:53:00,57.5,54.0,30.08,SE,136,2.0,5.0,88,0.00,,,0.50,207,Wunderground v.1.15,2013-04-04 17:53:00,
2013-04-04 10:58:00,57.8,54.3,30.08,SSE,167,2.0,2.0,88,0.00,,,0.50,165,Wunderground v.1.15,2013-04-04 17:58:00,
2013-04-04 11:08:00,57.7,53.9,30.08,SE,134,3.0,5.0,87,0.00,,,0.50,158,Wunderground v.1.15,2013-04-04 18:08:00,
2013-04-04 11:13:00,57.9,54.7,30.08,SE,144,2.0,5.0,89,0.00,,,0.50,209,Wunderground v.1.15,2013-04-04 18:13:00,
2013-04-04 11:23:00,58.0,55.4,30.08,SSW,192,2.0,6.0,91,0.00,,,0.51,301,Wunderground v.1.15,2013-04-04 18:23:00,
2013-04-04 11:28:00,58.1,55.5,30.08,SE,138,2.0,5.0,91,0.00,,,0.51,253,Wunderground v.1.15,2013-04-04 18:28:00,
2013-04-04 11:33:00,57.9,55.0,30.08,SE,134,3.0,5.0,90,0.00,,,0.51,214,Wunderground v.1.15,2013-04-04 18:33:00,
2013-04-04 11:38:00,58.0,55.4,30.08,SE,133,3.0,3.0,91,0.00,,,0.51,209,Wunderground v.1.15,2013-04-04 18:38:00,
2013-04-04 11:43:00,58.1,55.5,30.08,SE,140,3.0,6.0,91,0.00,,,0.51,214,Wunderground v.1.15,2013-04-04 18:43:00,
2013-04-04 11:48:00,58.4,55.8,30.08,SE,146,3.0,3.0,91,0.00,,,0.51,271,Wunderground v.1.15,2013-04-04 18:48:00,
2013-04-04 11:53:00,59.0,56.7,30.08,SSW,195,2.0,5.0,92,0.00,,,0.51,239,Wunderground v.1.15,2013-04-04 18:53:00,
2013-04-04 11:58:00,58.9,56.0,30.08,ESE,119,2.0,5.0,90,0.00,,,0.51,236,Wunderground v.1.15,2013-04-04 18:58:00,
2013-04-04 12:08:00,59.1,56.2,30.08,South,181,3.0,5.0,90,0.00,,,0.51,265,Wunderground v.1.15,2013-04-04 19:08:00,
2013-04-04 12:13:00,59.5,56.9,30.08,South,183,2.0,5.0,91,0.00,,,0.51,279,Wunderground v.1.15,2013-04-04 19:13:00,
2013-04-04 12:18:00,59.5,56.6,30.08,South,174,3.0,3.0,90,0.00,,,0.51,230,Wunderground v.1.15,2013-04-04 19:18:00,
2013-04-04 12:28:00,59.9,57.0,30.08,SSW,198,3.0,6.0,90,0.00,,,0.51,223,Wunderground v.1.15,2013-04-04 19:28:00,
2013-04-04 12:33:00,60.2,57.6,30.07,South,170,3.0,6.0,91,0.00,,,0.51,292,Wunderground v.1.15,2013-04-04 19:33:00,
2013-04-04 12:38:00,60.2,57.6,30.07,SSE,159,3.0,3.0,91,0.00,,,0.51,283,Wunderground v.1.15,2013-04-04 19:38:00,
2013-04-04 12:43:00,60.5,57.9,30.07,South,189,3.0,6.0,91,0.00,,,0.51,274,Wunderground v.1.15,2013-04-04 19:43:00,
2013-04-04 12:48:00,60.3,57.7,30.07,SSW,196,4.0,7.0,91,0.00,,,0.51,279,Wunderground v.1.15,2013-04-04 19:48:00,
2013-04-04 12:53:00,60.4,57.8,30.07,SW,230,5.0,7.0,91,0.00,,,0.51,264,Wunderground v.1.15,2013-04-04 19:53:00,
2013-04-04 12:58:00,60.5,57.9,30.07,South,177,4.0,5.0,91,0.00,,,0.51,244,Wunderground v.1.15,2013-04-04 19:58:00,
2013-04-04 13:03:00,60.7,58.1,30.07,SSE,165,3.0,5.0,91,0.00,,,0.51,304,Wunderground v.1.15,2013-04-04 20:03:00,
2013-04-04 13:08:00,61.0,57.7,30.07,SSE,149,3.0,5.0,89,0.00,,,0.51,394,Wunderground v.1.15,2013-04-04 20:08:00,
2013-04-04 13:13:00,61.7,58.4,30.07,SSW,209,4.0,5.0,89,0.00,,,0.51,464,Wunderground v.1.15,2013-04-04 20:13:00,
2013-04-04 13:18:00,62.1,58.2,30.07,South,188,4.0,7.0,87,0.00,,,0.51,446,Wunderground v.1.15,2013-04-04 20:18:00,
2013-04-04 13:23:00,62.6,59.3,30.06,SSE,161,4.0,7.0,89,0.00,,,0.51,461,Wunderground v.1.15,2013-04-04 20:23:00,
2013-04-04 13:28:00,63.3,59.4,30.06,South,190,3.0,5.0,87,0.00,,,0.51,448,Wunderground v.1.15,2013-04-04 20:28:00,
2013-04-04 13:33:00,63.5,59.2,30.06,South,171,3.0,5.0,86,0.00,,,0.51,454,Wunderground v.1.15,2013-04-04 20:33:00,
2013-04-04 13:38:00,63.2,57.9,30.06,South,177,4.0,5.0,83,0.00,,,0.51,394,Wunderground v.1.15,2013-04-04 20:38:00,
2013-04-04 13:43:00,63.3,58.7,30.06,SE,146,4.0,5.0,85,0.00,,,0.51,473,Wunderground v.1.15,2013-04-04 20:43:00,
2013-04-04 13:48:00,63.5,58.2,30.06,South,190,4.0,4.0,83,0.00,,,0.51,489,Wunderground v.1.15,2013-04-04 20:48:00,
2013-04-04 13:53:00,64.1,58.5,30.06,South,182,4.0,5.0,82,0.00,,,0.51,448,Wunderground v.1.15,2013-04-04 20:53:00,
2013-04-04 13:58:00,64.5,58.5,30.06,South,171,4.0,4.0,81,0.00,,,0.51,448,Wunderground v.1.15,2013-04-04 20:58:00,
2013-04-04 14:03:00,64.7,58.4,30.05,SSE,161,4.0,5.0,80,0.00,,,0.51,448,Wunderground v.1.15,2013-04-04 21:03:00,
2013-04-04 14:08:00,65.1,58.1,30.05,South,182,4.0,5.0,78,0.00,,,0.51,352,Wunderground v.1.15,2013-04-04 21:08:00,
2013-04-04 14:13:00,65.1,57.7,30.05,SSW,208,4.0,5.0,77,0.00,,,0.51,420,Wunderground v.1.15,2013-04-04 21:13:00,
2013-04-04 14:18:00,65.8,58.0,30.05,South,189,4.0,5.0,76,0.00,,,0.51,406,Wunderground v.1.15,2013-04-04 21:18:00,
2013-04-04 14:28:00,65.8,57.7,30.05,SE,146,5.0,7.0,75,0.00,,,0.51,397,Wunderground v.1.15,2013-04-04 21:28:00,
2013-04-04 14:33:00,65.7,56.8,30.04,South,182,6.0,7.0,73,0.00,,,0.51,756,Wunderground v.1.15,2013-04-04 21:33:00,
2013-04-04 14:43:00,66.8,57.5,30.04,SSW,198,5.0,6.0,72,0.00,,,0.51,550,Wunderground v.1.15,2013-04-04 21:43:00,
2013-04-04 14:48:00,66.6,57.3,30.04,South,171,5.0,6.0,72,0.00,,,0.51,724,Wunderground v.1.15,2013-04-04 21:48:00,
2013-04-04 14:53:00,66.8,57.1,30.04,South,178,5.0,6.0,71,0.00,,,0.51,513,Wunderground v.1.15,2013-04-04 21:53:00,
2013-04-04 14:58:00,67.2,57.9,30.04,South,171,5.0,5.0,72,0.00,,,0.51,302,Wunderground v.1.15,2013-04-04 21:58:00,
2013-04-04 15:03:00,67.1,57.4,30.03,SSW,202,4.0,5.0,71,0.00,,,0.51,223,Wunderground v.1.15,2013-04-04 22:03:00,
2013-04-04 15:08:00,66.8,57.1,30.04,SSW,213,4.0,5.0,71,0.00,,,0.51,260,Wunderground v.1.15,2013-04-04 22:08:00,
2013-04-04 15:13:00,66.6,56.9,30.04,SSW,200,4.0,5.0,71,0.00,,,0.51,260,Wunderground v.1.15,2013-04-04 22:13:00,
2013-04-04 15:23:00,66.5,56.4,30.04,SSW,200,4.0,6.0,70,0.00,,,0.51,283,Wunderground v.1.15,2013-04-04 22:23:00,
2013-04-04 15:28:00,66.4,56.7,30.04,West,273,4.0,5.0,71,0.00,,,0.51,169,Wunderground v.1.15,2013-04-04 22:28:00,
2013-04-04 15:33:00,66.0,57.1,30.04,West,265,4.0,6.0,73,0.00,,,0.51,139,Wunderground v.1.15,2013-04-04 22:33:00,
2013-04-04 15:43:00,64.8,57.4,30.04,SW,236,3.0,5.0,77,0.00,,,0.51,192,Wunderground v.1.15,2013-04-04 22:43:00,
2013-04-04 15:48:00,64.8,57.4,30.04,SW,236,3.0,5.0,77,0.00,,,0.51,214,Wunderground v.1.15,2013-04-04 22:48:00,
2013-04-04 15:53:00,65.2,57.8,30.03,West,259,3.0,5.0,77,0.00,,,0.51,276,Wunderground v.1.15,2013-04-04 22:53:00,
2013-04-04 15:58:00,65.5,57.4,30.03,SW,217,2.0,5.0,75,0.00,,,0.51,267,Wunderground v.1.15,2013-04-04 22:58:00,
2013-04-04 16:03:00,65.5,57.4,30.03,West,271,3.0,5.0,75,0.00,,,0.51,294,Wunderground v.1.15,2013-04-04 23:03:00,
2013-04-04 16:08:00,65.9,57.4,30.04,SW,224,3.0,3.0,74,0.00,,,0.51,290,Wunderground v.1.15,2013-04-04 23:08:00,
2013-04-04 16:13:00,66.1,57.6,30.03,SSW,195,3.0,5.0,74,0.00,,,0.51,285,Wunderground v.1.15,2013-04-04 23:13:00,
2013-04-04 16:18:00,66.5,57.2,30.04,SSW,204,3.0,5.0,72,0.00,,,0.51,311,Wunderground v.1.15,2013-04-04 23:18:00,
2013-04-04 16:23:00,66.9,57.2,30.04,SSW,211,3.0,5.0,71,0.00,,,0.51,288,Wunderground v.1.15,2013-04-04 23:23:00,
2013-04-04 16:28:00,66.7,56.6,30.03,SW,225,3.0,3.0,70,0.00,,,0.51,269,Wunderground v.1.15,2013-04-04 23:28:00,
2013-04-04 16:33:00,66.5,56.4,30.04,SW,214,4.0,4.0,70,0.00,,,0.51,290,Wunderground v.1.15,2013-04-04 23:33:00,
2013-04-04 16:38:00,66.4,56.7,30.04,SW,215,4.0,5.0,71,0.00,,,0.51,311,Wunderground v.1.15,2013-04-04 23:38:00,
2013-04-04 16:43:00,66.6,56.9,30.04,WSW,255,4.0,5.0,71,0.00,,,0.51,436,Wunderground v.1.15,2013-04-04 23:43:00,
2013-04-04 16:48:00,66.7,57.0,30.04,WSW,254,4.0,7.0,71,0.00,,,0.51,204,Wunderground v.1.15,2013-04-04 23:48:00,
2013-04-04 16:53:00,66.1,57.2,30.04,SW,225,4.0,7.0,73,0.00,,,0.51,517,Wunderground v.1.15,2013-04-04 23:53:00,
2013-04-04 17:03:00,65.6,57.1,30.04,West,269,6.0,12.0,74,0.00,,,0.51,211,Wunderground v.1.15,2013-04-05 00:03:00,
2013-04-04 17:08:00,65.2,57.1,30.04,WSW,250,7.0,7.0,75,0.00,,,0.51,200,Wunderground v.1.15,2013-04-05 00:08:00,
2013-04-04 17:13:00,65.0,56.9,30.04,West,262,7.0,7.0,75,0.00,,,0.52,274,Wunderground v.1.15,2013-04-05 00:13:00,
2013-04-04 17:18:00,65.0,56.9,30.04,SW,234,6.0,6.0,75,0.00,,,0.52,234,Wunderground v.1.15,2013-04-05 00:18:00,
2013-04-04 17:23:00,64.8,56.3,30.04,West,264,5.0,6.0,74,0.00,,,0.52,234,Wunderground v.1.15,2013-04-05 00:23:00,
2013-04-04 17:28:00,65.0,56.5,30.04,SW,236,5.0,6.0,74,0.00,,,0.52,214,Wunderground v.1.15,2013-04-05 00:28:00,
2013-04-04 17:33:00,64.9,56.4,30.04,WSW,244,5.0,6.0,74,0.00,,,0.52,199,Wunderground v.1.15,2013-04-05 00:33:00,
2013-04-04 17:38:00,65.2,56.7,30.03,SW,225,5.0,6.0,74,0.00,,,0.52,301,Wunderground v.1.15,2013-04-05 00:38:00,
2013-04-04 17:43:00,65.4,56.9,30.03,South,184,4.0,6.0,74,0.00,,,0.52,348,Wunderground v.1.15,2013-04-05 00:43:00,
2013-04-04 17:48:00,65.2,55.6,30.03,WSW,252,5.0,6.0,71,0.00,,,0.52,320,Wunderground v.1.15,2013-04-05 00:48:00,
2013-04-04 17:53:00,65.2,55.9,30.03,WSW,245,6.0,6.0,72,0.00,,,0.52,301,Wunderground v.1.15,2013-04-05 00:53:00,
2013-04-04 17:58:00,65.3,56.0,30.03,WSW,249,5.0,5.0,72,0.00,,,0.52,281,Wunderground v.1.15,2013-04-05 00:58:00,
2013-04-04 18:03:00,65.1,55.8,30.03,SW,228,4.0,5.0,72,0.00,,,0.52,262,Wunderground v.1.15,2013-04-05 01:03:00,
2013-04-04 18:08:00,64.8,55.9,30.03,WSW,249,5.0,6.0,73,0.00,,,0.52,243,Wunderground v.1.15,2013-04-05 01:08:00,
2013-04-04 18:13:00,64.5,55.7,30.03,West,273,5.0,6.0,73,0.00,,,0.52,229,Wunderground v.1.15,2013-04-05 01:13:00,
2013-04-04 18:18:00,64.6,56.1,30.03,SW,232,6.0,6.0,74,0.00,,,0.52,202,Wunderground v.1.15,2013-04-05 01:18:00,
2013-04-04 18:28:00,64.0,55.5,30.02,SW,223,5.0,10.0,74,0.00,,,0.52,135,Wunderground v.1.15,2013-04-05 01:28:00,
2013-04-04 18:33:00,63.8,55.0,30.03,WSW,242,4.0,10.0,73,0.00,,,0.52,137,Wunderground v.1.15,2013-04-05 01:33:00,
2013-04-04 18:38:00,63.5,55.1,30.03,WSW,245,4.0,4.0,74,0.00,,,0.52,113,Wunderground v.1.15,2013-04-05 01:38:00,
2013-04-04 18:43:00,63.4,55.0,30.03,SW,232,5.0,6.0,74,0.00,,,0.52,97,Wunderground v.1.15,2013-04-05 01:43:00,
2013-04-04 18:48:00,63.3,54.9,30.03,WSW,258,4.0,4.0,74,0.00,,,0.52,79,Wunderground v.1.15,2013-04-05 01:48:00,
2013-04-04 18:53:00,63.1,54.7,30.02,WSW,248,4.0,7.0,74,0.00,,,0.52,63,Wunderground v.1.15,2013-04-05 01:53:00,
2013-04-04 18:58:00,62.8,54.8,30.02,SSW,213,4.0,5.0,75,0.00,,,0.52,53,Wunderground v.1.15,2013-04-05 01:58:00,
2013-04-04 19:03:00,62.6,54.9,30.02,SW,231,5.0,6.0,76,0.00,,,0.52,40,Wunderground v.1.15,2013-04-05 02:03:00,
2013-04-04 19:08:00,62.3,54.6,30.02,West,266,5.0,5.0,76,0.00,,,0.52,28,Wunderground v.1.15,2013-04-05 02:08:00,
2013-04-04 19:18:00,61.8,54.5,30.02,WSW,241,4.0,5.0,77,0.00,,,0.52,16,Wunderground v.1.15,2013-04-05 02:18:00,
2013-04-04 19:23:00,61.6,54.7,30.03,WSW,253,4.0,5.0,78,0.00,,,0.52,12,Wunderground v.1.15,2013-04-05 02:23:00,
2013-04-04 19:28:00,61.4,54.5,30.03,SW,233,3.0,5.0,78,0.00,,,0.52,9,Wunderground v.1.15,2013-04-05 02:28:00,
2013-04-04 19:38:00,60.8,53.9,30.03,WSW,239,4.0,5.0,78,0.00,,,0.52,0,Wunderground v.1.15,2013-04-05 02:38:00,
2013-04-04 19:43:00,60.6,54.0,30.03,WSW,239,4.0,5.0,79,0.00,,,0.52,0,Wunderground v.1.15,2013-04-05 02:43:00,
2013-04-04 19:53:00,60.2,53.7,30.03,WSW,256,5.0,5.0,79,0.00,,,0.52,0,Wunderground v.1.15,2013-04-05 02:53:00,
2013-04-04 19:58:00,60.1,53.6,30.03,WSW,246,5.0,5.0,79,0.00,,,0.52,0,Wunderground v.1.15,2013-04-05 02:58:00,
2013-04-04 20:03:00,59.9,53.4,30.03,SW,232,4.0,6.0,79,0.00,,,0.52,0,Wunderground v.1.15,2013-04-05 03:03:00,
2013-04-04 20:08:00,59.7,53.5,30.03,WSW,255,4.0,4.0,80,0.00,,,0.52,0,Wunderground v.1.15,2013-04-05 03:08:00,
2013-04-04 20:13:00,59.4,53.6,30.03,SW,236,4.0,5.0,81,0.00,,,0.52,0,Wunderground v.1.15,2013-04-05 03:13:00,
2013-04-04 20:18:00,59.3,53.5,30.03,SW,227,5.0,5.0,81,0.00,,,0.52,0,Wunderground v.1.15,2013-04-05 03:18:00,
2013-04-04 20:23:00,59.1,53.3,30.03,WSW,247,6.0,6.0,81,0.00,,,0.52,0,Wunderground v.1.15,2013-04-05 03:23:00,
2013-04-04 20:28:00,59.0,53.2,30.04,WSW,244,5.0,5.0,81,0.00,,,0.52,0,Wunderground v.1.15,2013-04-05 03:28:00,
2013-04-04 20:38:00,59.0,53.2,30.04,WSW,246,4.0,6.0,81,0.00,,,0.52,0,Wunderground v.1.15,2013-04-05 03:38:00,
2013-04-04 20:43:00,58.9,53.1,30.04,WSW,247,3.0,6.0,81,0.00,,,0.52,0,Wunderground v.1.15,2013-04-05 03:43:00,
2013-04-04 20:45:00,58.6,52.8,30.05,West,281,4.0,5.0,81,0.00,,,0.52,0,Wunderground v.1.15,2013-04-05 03:45:00,
2013-04-04 20:48:00,58.8,53.0,30.05,West,275,3.0,3.0,81,0.00,,,0.52,0,Wunderground v.1.15,2013-04-05 03:48:00,
2013-04-04 20:50:00,58.5,53.0,30.05,SW,236,4.0,5.0,82,0.00,,,0.52,0,Wunderground v.1.15,2013-04-05 03:50:00,
2013-04-04 20:53:00,58.8,53.0,30.05,WSW,237,3.0,6.0,81,0.00,,,0.52,0,Wunderground v.1.15,2013-04-05 03:53:00,
2013-04-04 20:55:00,58.4,52.9,30.06,WSW,250,4.0,7.0,82,0.00,,,0.52,0,Wunderground v.1.15,2013-04-05 03:55:00,
2013-04-04 20:58:00,58.7,52.9,30.05,SSW,212,4.0,4.0,81,0.00,,,0.52,0,Wunderground v.1.15,2013-04-05 03:58:00,
2013-04-04 21:00:00,58.3,52.8,30.06,WSW,242,3.0,3.0,82,0.00,,,0.52,0,Wunderground v.1.15,2013-04-05 04:00:00,
2013-04-04 21:05:00,58.1,53.0,30.06,SW,225,2.0,5.0,83,0.00,,,0.52,0,Wunderground v.1.15,2013-04-05 04:05:00,
2013-04-04 21:10:00,58.1,53.0,30.06,SW,214,3.0,3.0,83,0.00,,,0.52,0,Wunderground v.1.15,2013-04-05 04:10:00,
2013-04-04 21:15:00,58.0,52.9,30.07,SW,225,3.0,5.0,83,0.00,,,0.52,0,Wunderground v.1.15,2013-04-05 04:15:00,
2013-04-04 21:20:00,57.8,53.0,30.07,SSW,212,3.0,3.0,84,0.00,,,0.52,0,Wunderground v.1.15,2013-04-05 04:20:00,
2013-04-04 21:25:00,57.6,52.8,30.07,SW,219,3.0,5.0,84,0.00,,,0.52,0,Wunderground v.1.15,2013-04-05 04:25:00,
2013-04-04 21:30:00,57.6,52.8,30.07,SW,214,2.0,5.0,84,0.00,,,0.52,0,Wunderground v.1.15,2013-04-05 04:30:00,
2013-04-04 21:35:00,57.4,52.6,30.07,SW,216,2.0,5.0,84,0.00,,,0.52,0,Wunderground v.1.15,2013-04-05 04:35:00,
2013-04-04 21:40:00,57.3,52.5,30.07,SW,236,2.0,2.0,84,0.00,,,0.52,0,Wunderground v.1.15,2013-04-05 04:40:00,
2013-04-04 21:45:00,57.2,52.7,30.07,SW,219,1.0,5.0,85,0.00,,,0.52,0,Wunderground v.1.15,2013-04-05 04:45:00,
2013-04-04 21:50:00,57.1,52.6,30.07,SW,221,1.0,1.0,85,0.00,,,0.52,0,Wunderground v.1.15,2013-04-05 04:50:00,
2013-04-04 21:55:00,57.0,52.5,30.07,SW,221,0.0,2.0,85,0.00,,,0.52,0,Wunderground v.1.15,2013-04-05 04:55:00,
2013-04-04 22:00:00,56.8,52.3,30.07,SW,217,1.0,1.0,85,0.00,,,0.52,0,Wunderground v.1.15,2013-04-05 05:00:00,
2013-04-04 22:05:00,56.7,52.6,30.08,SW,228,1.0,5.0,86,0.00,,,0.52,0,Wunderground v.1.15,2013-04-05 05:05:00,
2013-04-04 22:10:00,56.7,52.6,30.08,WSW,240,1.0,5.0,86,0.00,,,0.52,0,Wunderground v.1.15,2013-04-05 05:10:00,
2013-04-04 22:15:00,56.8,52.7,30.08,WSW,254,2.0,5.0,86,0.00,,,0.52,0,Wunderground v.1.15,2013-04-05 05:15:00,
2013-04-04 22:20:00,56.7,52.6,30.08,WSW,254,1.0,1.0,86,0.00,,,0.52,0,Wunderground v.1.15,2013-04-05 05:20:00,
2013-04-04 22:25:00,56.5,52.4,30.08,WSW,254,0.0,5.0,86,0.00,,,0.52,0,Wunderground v.1.15,2013-04-05 05:25:00,
2013-04-04 22:30:00,56.4,52.3,30.08,WSW,254,0.0,5.0,86,0.00,,,0.52,0,Wunderground v.1.15,2013-04-05 05:30:00,
2013-04-04 22:35:00,56.6,52.8,30.08,WSW,242,0.0,5.0,87,0.00,,,0.52,0,Wunderground v.1.15,2013-04-05 05:35:00,
2013-04-04 22:40:00,56.7,52.6,30.08,WSW,242,1.0,5.0,86,0.00,,,0.52,0,Wunderground v.1.15,2013-04-05 05:40:00,
2013-04-04 22:45:00,56.6,52.5,30.08,WSW,242,1.0,5.0,86,0.00,,,0.52,0,Wunderground v.1.15,2013-04-05 05:45:00,
2013-04-04 22:50:00,56.6,52.5,30.08,WSW,242,1.0,1.0,86,0.00,,,0.52,0,Wunderground v.1.15,2013-04-05 05:50:00,
2013-04-04 22:55:00,56.6,52.5,30.08,SW,224,1.0,5.0,86,0.00,,,0.52,0,Wunderground v.1.15,2013-04-05 05:55:00,
2013-04-04 23:00:00,56.5,52.7,30.08,SSW,207,1.0,5.0,87,0.00,,,0.52,0,Wunderground v.1.15,2013-04-05 06:00:00,
2013-04-04 23:05:00,56.4,52.6,30.08,SSW,207,0.0,5.0,87,0.00,,,0.52,0,Wunderground v.1.15,2013-04-05 06:05:00,
2013-04-04 23:10:00,56.2,52.4,30.08,SSW,207,0.0,5.0,87,0.00,,,0.52,0,Wunderground v.1.15,2013-04-05 06:10:00,
2013-04-04 23:15:00,56.1,52.3,30.08,SSW,207,1.0,5.0,87,0.00,,,0.52,0,Wunderground v.1.15,2013-04-05 06:15:00,
2013-04-04 23:20:00,56.2,52.7,30.08,SSW,194,1.0,5.0,88,0.00,,,0.52,0,Wunderground v.1.15,2013-04-05 06:20:00,
2013-04-04 23:25:00,56.4,52.9,30.09,SSW,194,2.0,5.0,88,0.00,,,0.52,0,Wunderground v.1.15,2013-04-05 06:25:00,
2013-04-04 23:30:00,56.4,52.9,30.09,SSW,194,1.0,1.0,88,0.00,,,0.52,0,Wunderground v.1.15,2013-04-05 06:30:00,
2013-04-04 23:35:00,56.5,53.0,30.09,SSW,194,0.0,5.0,88,0.00,,,0.52,0,Wunderground v.1.15,2013-04-05 06:35:00,
2013-04-04 23:40:00,56.5,53.0,30.09,SSW,194,0.0,5.0,88,0.00,,,0.52,0,Wunderground v.1.15,2013-04-05 06:40:00,
2013-04-04 23:45:00,56.2,52.7,30.09,SSW,194,0.0,5.0,88,0.00,,,0.52,0,Wunderground v.1.15,2013-04-05 06:45:00,
2013-04-04 23:50:00,56.2,52.7,30.09,SSW,194,0.0,5.0,88,0.00,,,0.52,0,Wunderground v.1.15,2013-04-05 06:50:00,
2013-04-04 23:55:00,56.1,52.6,30.09,SSW,194,0.0,5.0,88,0.00,,,0.52,0,Wunderground v.1.15,2013-04-05 06:55:00,